Charco, Texas
Current Conditions -  °F | °C
As of 10:15 AM on Tuesday 21 Oct 2014 (Local Time) from KBEA Reporting Station
Clear Clear  
Wind Chill: 75°   Ceiling: Unl
Heat Index: 75°   Visibility: 10mi
Dew Point: 62°   Wind: 13mph
Humidity: 64%   Direction: 60°ENE
Pressure: 30.04"   Gusts: NA
Location:  28.6563°N, 97.4287°W
Report Text: KBEA 211515Z AUTO 06011KT 10SM CLR 24/17 A3004 RMK AO2 T02370165
Loading
Personal Weather Stations






























Interactive Weather Map New forecast layout! Learn more

10-Day Weather Forecast

Advertisements
Track Severe Weather on mobile